• Join FlightAware (Why Join?)
  • Login
  • US Flag 
Gobble Gobble! 
02:44PM EST


 

Airport Tracker/Info


-or-


 

Live Flight TrackerFlight Track Log ✈ N175HQ ✈ 13-Apr-2013 ✈ KOMA - KDCA

Flight Track Log - Related Links

Times and Time Zones

All times are in EDT time to prevent confusion due to time zone crossing. See the N175HQ flight status page for this flight to view local times or setup timezone preferences in your user account.

Time Position Orientation Groundspeed Altitude Reporting Facility
EDT Latitude Longitude Course Direction KTS MPH feet Rate Location/Type
04:59PM 41.2947 -95.8892 135° Southeast 147 169 1,600  Level Minneapolis Center
04:59PM 41.2811 -95.8711 135° Southeast 145 167 2,700 2,280 Climbing Minneapolis Center
05:00PM 41.2586 -95.8403 134° Southeast 225 259 4,300 2,400 Climbing Minneapolis Center
05:00PM 41.2622 -95.8097 81° East 236 272 5,200 2,400 Climbing Minneapolis Center
05:01PM 41.2658 -95.7478 86° East 251 289 6,800 3,060 Climbing Minneapolis Center
05:02PM 41.2775 -95.6092 84° East 289 333 10,800 3,360 Climbing Minneapolis Center
05:03PM 41.2900 -95.4758 83° East 330 380 13,700 2,880 Climbing Minneapolis Center
05:05PM 41.3136 -95.1875 84° East 394 453 19,700 2,760 Climbing Minneapolis Center
05:06PM 41.3264 -95.0375 83° East 405 466 22,200 2,400 Climbing Minneapolis Center
05:07PM 41.3383 -94.8797 84° East 421 484 24,600 2,160 Climbing Minneapolis Center
05:08PM 41.3219 -94.7169 98° East 439 505 26,700 1,860 Climbing Minneapolis Center
05:09PM 41.2953 -94.5525 102° East 450 518 28,500 1,800 Climbing Minneapolis Center
05:10PM 41.2719 -94.3825 100° East 462 532 30,400 1,800 Climbing Minneapolis Center
05:11PM 41.2442 -94.2022 102° East 469 540 32,300 2,040 Climbing Minneapolis Center
05:12PM 41.2203 -94.0336 101° East 469 540 34,600 1,260 Climbing Minneapolis Center
05:13PM 41.1961 -93.8700 101° East 459 528 35,000 180 Climbing Minneapolis Center
05:14PM 41.1669 -93.6786 101° East 446 513 35,000  Level Minneapolis Center
05:15PM 41.1431 -93.5192 101° East 444 511 35,000  Level Minneapolis Center
05:16PM 41.1183 -93.3578 101° East 446 513 35,000  Level Minneapolis Center
05:17PM 41.0936 -93.1956 101° East 449 517 35,000  Level Minneapolis Center
05:18PM 41.0700 -93.0292 101° East 456 525 35,000  Level Minneapolis Center
05:19PM 41.0442 -92.8667 102° East 456 525 35,000  Level Minneapolis Center
05:19PM 41.0331 -92.8006 103° East 454 522 35,000  Level Chicago Center
05:20PM 41.0078 -92.6381 102° East 454 522 35,000  Level Chicago Center
05:21PM 40.9819 -92.4742 102° East 455 524 35,000  Level Chicago Center
05:22PM 40.9558 -92.3114 102° East 455 524 35,000  Level Chicago Center
05:24PM 40.9292 -92.1472 102° East 458 527 35,000  Level Chicago Center
05:25PM 40.9008 -91.9831 103° East 459 528 35,000  Level Chicago Center
05:26PM 40.8742 -91.8194 102° East 458 527 35,000  Level Chicago Center
05:27PM 40.8403 -91.6219 103° East 461 531 35,000  Level Chicago Center
05:28PM 40.8131 -91.4581 102° East 461 531 35,000  Level Chicago Center
05:29PM 40.7847 -91.2922 103° East 464 534 35,000  Level Chicago Center
05:30PM 40.7539 -91.1153 103° East 465 535 35,000  Level Chicago Center
05:31PM 40.7244 -90.9517 103° East 462 532 35,000  Level Chicago Center
05:32PM 40.6956 -90.7839 103° East 467 537 35,000  Level Chicago Center
05:33PM 40.6650 -90.6200 104° East 464 534 35,000  Level Chicago Center
05:34PM 40.6350 -90.4544 103° East 468 539 35,000  Level Chicago Center
05:35PM 40.6058 -90.2903 103° East 464 534 35,000  Level Chicago Center
05:36PM 40.5706 -90.1025 104° East 463 533 35,000  Level Chicago Center
05:37PM 40.5406 -89.9389 104° East 463 533 35,000  Level Chicago Center
05:38PM 40.5097 -89.7764 104° East 462 532 35,000  Level Chicago Center
05:39PM 40.4794 -89.6136 104° East 460 529 35,000  Level Chicago Center
05:40PM 40.4489 -89.4500 104° East 459 528 35,000  Level Chicago Center
05:41PM 40.4181 -89.2883 104° East 458 527 35,000  Level Chicago Center
05:42PM 40.3803 -89.0944 104° East 459 528 35,000  Level Chicago Center
05:43PM 40.3489 -88.9331 104° East 457 526 35,000  Level Chicago Center
05:44PM 40.3181 -88.7711 104° East 460 529 35,000  Level Chicago Center
05:45PM 40.2850 -88.6097 105° East 460 529 35,000  Level Chicago Center
05:46PM 40.2542 -88.4550 105° East 464 534 35,000  Level Chicago Center
05:47PM 40.2158 -88.2625 105° East 461 531 35,000  Level Chicago Center
05:48PM 40.1878 -88.1219 105° East 464 534 35,000  Level Chicago Center
05:49PM 40.1544 -87.9600 105° East 464 534 35,000  Level Chicago Center
05:50PM 40.1333 -87.8525 104° East 461 531 35,000  Level Indianapolis Center
05:51PM 40.0989 -87.6922 106° East 461 531 35,000  Level Indianapolis Center
05:52PM 40.0644 -87.5281 105° East 465 535 35,000  Level Indianapolis Center
05:53PM 40.0292 -87.3658 106° East 463 533 35,000  Level Indianapolis Center
05:54PM 39.9953 -87.2039 105° East 462 532 35,000  Level Indianapolis Center
05:55PM 39.9606 -87.0403 105° East 465 535 35,000  Level Indianapolis Center
05:56PM 39.9247 -86.8789 106° East 463 533 35,000  Level Indianapolis Center
05:57PM 39.8894 -86.7150 106° East 466 536 35,000  Level Indianapolis Center
05:58PM 39.8547 -86.5533 106° East 464 534 35,000  Level Indianapolis Center
05:59PM 39.8206 -86.3922 105° East 460 529 35,000  Level Indianapolis Center
06:00PM 39.8328 -86.1867 86° East 477 549 35,000  Level Indianapolis Center
06:01PM 39.8514 -86.0172 82° East 474 545 35,000  Level Indianapolis Center
06:02PM 39.8686 -85.8464 82° East 476 548 35,000  Level Indianapolis Center
06:03PM 39.8856 -85.6747 83° East 476 548 35,000  Level Indianapolis Center
06:04PM 39.9011 -85.5008 83° East 478 550 35,000  Level Indianapolis Center
06:05PM 39.9050 -85.3253 88° East 482 555 35,000  Level Indianapolis Center
06:06PM 39.8989 -85.1525 93° East 477 549 35,000  Level Indianapolis Center
06:07PM 39.8969 -84.9783 91° East 477 549 35,000  Level Indianapolis Center
06:08PM 39.8978 -84.7769 90° East 474 545 35,000  Level Indianapolis Center
06:09PM 39.8981 -84.6033 90° East 475 547 35,000  Level Indianapolis Center
06:10PM 39.8994 -84.4289 89° East 478 550 35,000  Level Indianapolis Center
06:11PM 39.8997 -84.2561 90° East 473 544 35,000  Level Indianapolis Center
06:12PM 39.8986 -84.0814 90° East 477 549 35,000  Level Indianapolis Center
06:13PM 39.8983 -83.9072 90° East 478 550 35,000  Level Indianapolis Center
06:14PM 39.8969 -83.7325 91° East 478 550 35,000  Level Indianapolis Center
06:15PM 39.8956 -83.5636 91° East 476 548 35,000  Level Indianapolis Center
06:16PM 39.8953 -83.3897 90° East 479 551 35,000  Level Indianapolis Center
06:17PM 39.8925 -83.1983 91° East 477 549 35,000  Level Indianapolis Center
06:18PM 39.8903 -83.0228 91° East 479 551 35,000  Level Indianapolis Center
06:19PM 39.8889 -82.8489 91° East 478 550 35,000  Level Indianapolis Center
06:20PM 39.8861 -82.6725 91° East 481 554 35,000  Level Indianapolis Center
06:22PM 39.8833 -82.4958 91° East 483 556 35,000  Level Indianapolis Center
06:23PM 39.8803 -82.3214 91° East 480 552 35,000  Level Indianapolis Center
06:24PM 39.8764 -82.1183 91° East 478 550 35,000  Level Indianapolis Center
06:25PM 39.8728 -81.9425 91° East 483 556 35,000  Level Indianapolis Center
06:26PM 39.8683 -81.7658 92° East 485 558 35,000  Level Indianapolis Center
06:27PM 39.8517 -81.5933 97° East 481 554 35,000  Level Indianapolis Center
06:27PM 39.8397 -81.5672 121° Southeast 480 552 35,000  Level Cleveland Center
06:28PM 39.7972 -81.4289 112° Southeast 460 529 35,000  Level Cleveland Center
06:29PM 39.7483 -81.2419 109° East 454 522 35,000  Level Cleveland Center
06:30PM 39.6992 -81.0850 112° Southeast 454 522 35,000  Level Cleveland Center
06:31PM 39.6539 -80.9336 111° Southeast 454 522 35,000  Level Cleveland Center
06:32PM 39.6081 -80.8061 115° Southeast 462 532 35,000  Level Indianapolis Center
06:33PM 39.5597 -80.6525 112° Southeast 460 529 35,000  Level Indianapolis Center
06:34PM 39.5103 -80.4978 112° Southeast 462 532 35,000  Level Indianapolis Center
06:34PM 39.4917 -80.4242 108° East 452 520 35,000  Level Washington Center
06:35PM 39.4436 -80.2731 112° Southeast 452 520 35,000  Level Washington Center
06:36PM 39.3950 -80.1250 113° Southeast 447 514 35,000 -1,140 Level Washington Center
06:37PM 39.3464 -79.9744 113° Southeast 447 514 32,800 -2,040 Descending Washington Center
06:38PM 39.3000 -79.8133 110° East 453 521 31,000 -900 Descending Washington Center
06:39PM 39.2831 -79.6381 97° East 470 541 31,000  Level Washington Center
06:40PM 39.2700 -79.4631 95° East 480 552 31,000 -1,080 Level Washington Center
06:41PM 39.2567 -79.2906 96° East 485 558 28,900 -2,100 Descending Washington Center
06:42PM 39.2333 -79.0992 99° East 485 558 26,900 -1,680 Descending Washington Center
06:43PM 39.2175 -78.9244 97° East 490 564 25,600 -2,100 Descending Washington Center
06:44PM 39.2014 -78.7494 97° East 490 564 22,800 -2,700 Descending Washington Center
06:45PM 39.1828 -78.5800 98° East 484 557 20,300 -2,580 Descending Washington Center
06:46PM 39.1681 -78.4161 97° East 479 551 17,700 -2,100 Descending Washington Center
06:47PM 39.1381 -78.2703 105° East 446 513 16,100 -1,320 Descending Washington Center
06:48PM 39.1036 -78.1272 107° East 424 488 15,100 -1,200 Descending Washington Center
06:49PM 39.0686 -77.9925 108° East 406 467 13,800 -1,200 Descending Washington Center
06:50PM 39.0358 -77.8603 108° East 396 456 12,700 -1,440 Descending Washington Center
06:51PM 39.0008 -77.7283 109° East 388 447 11,000 -1,260 Descending Washington Center
06:53PM 38.9500 -77.5500 110° East 333 383 9,400 -1,140 Descending Potomac TRACON
06:54PM 38.9833 -77.4500 67° East 311 358 8,100 -1,200 Descending Potomac TRACON
06:55PM 39.0167 -77.3667 63° Northeast 246 283 7,100 -1,380 Descending Potomac TRACON
06:56PM 39.0333 -77.2833 76° East 245 282 5,400 -1,740 Descending Potomac TRACON
06:57PM 39.0000 -77.2333 131° Southeast 221 254 3,700 -1,440 Descending Potomac TRACON
06:58PM 38.9667 -77.1667 123° Southeast 199 229 2,500 -900 Descending Potomac TRACON
06:59PM 38.9333 -77.1167 131° Southeast 176 203 2,000 -840 Descending Potomac TRACON
07:00PM 38.9000 -77.0833 142° Southeast 156 180 1,000 -840 Descending Potomac TRACON
07:01PM 38.8833 -77.0500 123° Southeast 134 154 400 -600 Descending Potomac TRACON
07:03PM 38.8519 -77.0377 188° South  Level Estimated